createdAt,value
2023-03-03T00:00:18.670Z,69.37
2023-03-03T00:02:44.906Z,67.30
2023-03-03T00:05:14.731Z,67.20
2023-03-03T00:07:43.284Z,62.93
2023-03-03T00:10:10.447Z,64.37
2023-03-03T00:12:42.803Z,56.07
2023-03-03T00:15:14.888Z,58.27
2023-03-03T00:17:42.507Z,62.20
2023-03-03T00:20:30.348Z,59.53
2023-03-03T00:22:57.209Z,64.00
2023-03-03T00:25:28.330Z,54.57
2023-03-03T00:27:54.572Z,58.10
2023-03-03T00:30:24.713Z,61.63
2023-03-03T00:32:52.433Z,73.47
2023-03-03T00:35:29.758Z,68.50
2023-03-03T00:37:57.147Z,59.73
2023-03-03T00:40:24.623Z,66.80
2023-03-03T00:42:52.391Z,63.17
2023-03-03T00:45:27.681Z,67.17
2023-03-03T00:47:55.200Z,73.90
2023-03-03T00:50:30.629Z,74.27
2023-03-03T00:53:05.708Z,72.90
2023-03-03T00:55:33.436Z,81.37
2023-03-03T00:57:59.626Z,80.03
2023-03-03T01:00:25.808Z,74.20
2023-03-03T01:02:52.280Z,75.70
2023-03-03T01:05:19.965Z,86.63
2023-03-03T01:07:46.314Z,79.43
2023-03-03T01:10:13.052Z,89.33
2023-03-03T01:12:39.603Z,91.60
2023-03-03T01:15:07.114Z,92.03
2023-03-03T01:17:33.562Z,82.77
2023-03-03T01:19:59.740Z,86.40
2023-03-03T01:22:26.598Z,78.67
2023-03-03T01:24:52.843Z,81.73
2023-03-03T01:27:19.073Z,87.43
2023-03-03T01:29:45.277Z,89.73
2023-03-03T01:32:11.583Z,83.33
2023-03-03T01:34:37.876Z,80.13
2023-03-03T01:37:04.216Z,87.03
2023-03-03T01:39:31.078Z,80.63
2023-03-03T01:41:57.269Z,84.67
2023-03-03T01:44:26.005Z,93.17
2023-03-03T01:46:55.412Z,81.33
2023-03-03T01:49:24.027Z,83.67
2023-03-03T01:51:52.684Z,83.53
2023-03-03T01:54:23.523Z,84.33
2023-03-03T01:56:52.479Z,87.30
2023-03-03T01:59:21.250Z,83.00
2023-03-03T02:01:47.934Z,80.80
2023-03-03T02:04:14.796Z,84.37
2023-03-03T02:06:44.710Z,79.63
2023-03-03T02:09:14.227Z,84.03
2023-03-03T02:11:42.251Z,83.30
2023-03-03T02:14:10.039Z,85.07
2023-03-03T02:16:36.224Z,86.23
2023-03-03T02:19:04.469Z,80.83
2023-03-03T02:21:30.862Z,80.50
2023-03-03T02:24:01.263Z,89.40
2023-03-03T02:26:29.190Z,76.50
2023-03-03T02:28:55.455Z,80.43
2023-03-03T02:31:24.011Z,86.63
2023-03-03T02:33:51.415Z,83.27
2023-03-03T02:36:20.520Z,89.93
2023-03-03T02:38:50.887Z,82.43
2023-03-03T02:41:25.713Z,84.20
2023-03-03T02:43:56.284Z,98.30
2023-03-03T02:46:22.495Z,89.63
2023-03-03T02:48:48.780Z,84.90
2023-03-03T02:51:14.967Z,85.37
2023-03-03T02:53:41.197Z,92.50
2023-03-03T02:56:08.850Z,92.47
2023-03-03T02:58:35.035Z,93.90
2023-03-03T03:01:02.174Z,89.73
2023-03-03T03:03:28.502Z,84.03
2023-03-03T03:05:54.639Z,86.73
2023-03-03T03:08:20.899Z,85.37
2023-03-03T03:10:47.222Z,84.60
2023-03-03T03:13:13.471Z,92.70
2023-03-03T03:15:39.966Z,85.07
2023-03-03T03:18:06.949Z,92.00
2023-03-03T03:20:36.030Z,94.70
2023-03-03T03:23:02.150Z,91.93
2023-03-03T03:25:28.320Z,95.00
2023-03-03T03:27:54.446Z,90.07
2023-03-03T03:30:21.727Z,88.90
2023-03-03T03:32:47.994Z,85.87
2023-03-03T03:35:16.425Z,77.70
2023-03-03T03:37:42.619Z,77.30
2023-03-03T03:40:21.427Z,82.40
2023-03-03T03:42:47.628Z,84.57
2023-03-03T03:45:14.498Z,80.57
2023-03-03T03:47:40.739Z,83.13
2023-03-03T03:50:08.297Z,85.00
2023-03-03T03:52:35.091Z,82.73
2023-03-03T03:55:01.586Z,93.60
2023-03-03T03:57:27.892Z,81.83
2023-03-03T03:59:54.137Z,91.50
2023-03-03T04:02:20.425Z,88.90
2023-03-03T04:04:46.707Z,82.83
2023-03-03T04:07:13.419Z,86.33
2023-03-03T04:09:40.457Z,88.27
2023-03-03T04:12:07.025Z,77.90
2023-03-03T04:14:33.239Z,78.97
2023-03-03T04:16:59.507Z,86.80
2023-03-03T04:19:25.905Z,86.20
2023-03-03T04:21:52.219Z,80.20
2023-03-03T04:24:18.856Z,86.23
2023-03-03T04:26:45.700Z,93.00
2023-03-03T04:29:11.898Z,83.20
2023-03-03T04:31:38.294Z,90.57
2023-03-03T04:34:04.883Z,82.57
2023-03-03T04:36:31.148Z,89.67
2023-03-03T04:38:57.330Z,98.27
2023-03-03T04:41:23.565Z,99.27
2023-03-03T04:43:50.609Z,108.90
2023-03-03T04:46:16.893Z,98.70
2023-03-03T04:48:43.128Z,96.23
2023-03-03T04:51:09.356Z,89.43
2023-03-03T04:53:37.602Z,94.80
2023-03-03T04:56:04.730Z,104.23
2023-03-03T04:58:31.031Z,94.93
2023-03-03T05:00:57.928Z,103.70
2023-03-03T05:03:26.079Z,100.37
2023-03-03T05:05:52.398Z,101.33
2023-03-03T05:08:18.652Z,94.77
2023-03-03T05:10:44.791Z,104.60
2023-03-03T05:13:11.090Z,110.23
2023-03-03T05:15:37.411Z,104.40
2023-03-03T05:18:04.627Z,105.03
2023-03-03T05:20:30.783Z,114.10
2023-03-03T05:22:59.126Z,114.47
2023-03-03T05:25:25.512Z,130.90
2023-03-03T05:27:51.731Z,124.60
2023-03-03T05:30:17.859Z,134.73
2023-03-03T05:32:49.964Z,135.53
2023-03-03T05:35:17.396Z,128.73
2023-03-03T05:37:46.964Z,126.60
2023-03-03T05:40:13.956Z,133.40
2023-03-03T05:42:40.243Z,138.50
2023-03-03T05:45:07.445Z,128.50
2023-03-03T05:47:33.887Z,131.87
2023-03-03T05:50:00.505Z,131.50
2023-03-03T05:52:27.684Z,123.97
2023-03-03T05:54:54.054Z,130.00
2023-03-03T05:57:20.334Z,133.03
2023-03-03T05:59:46.736Z,132.83
2023-03-03T06:02:13.231Z,145.33
2023-03-03T06:04:39.696Z,125.83
2023-03-03T06:07:05.936Z,144.73
2023-03-03T06:09:33.221Z,140.17
2023-03-03T06:11:59.405Z,132.77
2023-03-03T06:14:27.171Z,135.23
2023-03-03T06:16:53.872Z,152.10
2023-03-03T06:19:20.344Z,138.33
2023-03-03T06:21:46.544Z,135.67
2023-03-03T06:24:12.778Z,125.43
2023-03-03T06:26:39.617Z,125.77
2023-03-03T06:29:06.384Z,133.53
2023-03-03T06:31:33.168Z,132.30
2023-03-03T06:33:59.531Z,118.53
2023-03-03T06:36:26.421Z,123.73
2023-03-03T06:38:52.656Z,126.33
2023-03-03T06:41:18.846Z,127.90
2023-03-03T06:43:47.872Z,126.30
2023-03-03T06:46:14.135Z,115.33
2023-03-03T06:48:41.202Z,117.77
2023-03-03T06:51:20.610Z,107.50
2023-03-03T06:53:48.053Z,98.57
2023-03-03T06:56:14.240Z,102.27
2023-03-03T06:58:40.435Z,98.80
2023-03-03T07:01:13.386Z,107.60
2023-03-03T07:03:39.691Z,107.40
2023-03-03T07:06:13.580Z,106.03
2023-03-03T07:08:40.306Z,110.83
2023-03-03T07:11:11.149Z,106.40
2023-03-03T07:13:38.248Z,108.63
2023-03-03T07:16:11.702Z,107.00
2023-03-03T07:18:40.320Z,111.87
2023-03-03T07:21:14.443Z,101.40
2023-03-03T07:23:41.918Z,109.10
2023-03-03T07:26:10.055Z,107.90
2023-03-03T07:28:37.563Z,122.57
2023-03-03T07:31:17.805Z,105.70
2023-03-03T07:33:44.983Z,103.20
2023-03-03T07:36:23.951Z,111.10
2023-03-03T07:38:53.094Z,106.67
2023-03-03T07:41:22.659Z,108.40
2023-03-03T07:43:50.342Z,99.33
2023-03-03T07:46:29.184Z,96.90
2023-03-03T07:48:56.754Z,98.10
2023-03-03T07:51:26.860Z,95.80
2023-03-03T07:53:53.947Z,102.10
2023-03-03T07:56:27.741Z,83.50
2023-03-03T07:58:55.286Z,94.03
2023-03-03T08:01:48.571Z,94.03
2023-03-03T08:04:21.062Z,94.00
2023-03-03T08:06:49.293Z,83.30
2023-03-03T08:09:44.568Z,88.37
2023-03-03T08:12:25.209Z,79.50
2023-03-03T08:14:52.014Z,76.50
2023-03-03T08:17:21.325Z,81.13
2023-03-03T08:19:48.088Z,74.00
2023-03-03T08:22:16.430Z,80.43
2023-03-03T08:24:42.757Z,75.13
2023-03-03T08:27:08.952Z,82.83
2023-03-03T08:29:35.091Z,72.33
2023-03-03T08:32:01.434Z,73.37
2023-03-03T08:34:28.398Z,70.33
2023-03-03T08:36:57.325Z,72.80
2023-03-03T08:39:23.575Z,69.97
2023-03-03T08:41:50.082Z,71.37
2023-03-03T08:44:16.386Z,71.10
2023-03-03T08:46:43.651Z,68.90
2023-03-03T08:49:10.014Z,68.87
2023-03-03T08:51:36.927Z,75.27
2023-03-03T08:54:03.294Z,70.30
2023-03-03T08:56:29.599Z,69.17
2023-03-03T08:59:03.404Z,79.73
2023-03-03T09:01:29.870Z,83.20
2023-03-03T09:03:56.204Z,71.47
2023-03-03T09:06:22.696Z,68.63
2023-03-03T09:08:49.650Z,78.10
2023-03-03T09:11:22.379Z,75.93
2023-03-03T09:13:52.522Z,69.27
2023-03-03T09:16:20.813Z,70.43
2023-03-03T09:18:47.072Z,75.73
2023-03-03T09:21:21.055Z,74.50
2023-03-03T09:23:51.372Z,68.57
2023-03-03T09:26:29.762Z,69.83
2023-03-03T09:28:59.194Z,82.83
2023-03-03T09:31:27.987Z,75.77
2023-03-03T09:33:57.031Z,85.50
2023-03-03T09:36:25.481Z,94.07
2023-03-03T09:38:52.861Z,86.60
2023-03-03T09:41:55.460Z,86.87
2023-03-03T09:44:34.617Z,87.57
2023-03-03T09:47:18.191Z,96.17
2023-03-03T09:49:54.153Z,79.93
2023-03-03T09:52:33.279Z,69.70
2023-03-03T09:55:17.633Z,81.10
2023-03-03T09:58:08.159Z,75.13
2023-03-03T10:00:44.285Z,77.80
2023-03-03T10:03:25.891Z,75.33
2023-03-03T10:05:58.611Z,83.43
2023-03-03T10:08:36.796Z,75.63
2023-03-03T10:11:11.230Z,82.93
2023-03-03T10:13:56.230Z,90.13
2023-03-03T10:16:35.559Z,81.93
2023-03-03T10:19:03.329Z,70.23
2023-03-03T10:21:34.072Z,79.40
2023-03-03T10:24:05.845Z,66.17
2023-03-03T10:26:52.555Z,71.03
2023-03-03T10:29:33.268Z,83.83
2023-03-03T10:32:38.081Z,76.40
2023-03-03T10:35:28.404Z,76.93
2023-03-03T10:38:06.199Z,70.33
2023-03-03T10:40:35.206Z,76.30
2023-03-03T10:43:31.073Z,72.83
2023-03-03T10:46:15.937Z,83.40
2023-03-03T10:48:56.880Z,85.00
2023-03-03T10:51:28.248Z,89.73
2023-03-03T10:54:05.299Z,94.10
2023-03-03T10:56:52.140Z,90.80
2023-03-03T10:59:35.642Z,93.67
2023-03-03T11:02:06.085Z,98.57
2023-03-03T11:05:08.685Z,98.50
2023-03-03T11:07:38.668Z,85.57
2023-03-03T11:10:18.770Z,81.43
2023-03-03T11:12:53.215Z,89.07
2023-03-03T11:15:37.101Z,84.40
2023-03-03T11:18:15.665Z,91.30
2023-03-03T11:20:46.388Z,86.47
2023-03-03T11:23:42.468Z,88.17
2023-03-03T11:26:11.959Z,83.17
2023-03-03T11:28:48.330Z,94.37
2023-03-03T11:31:21.752Z,94.30
2023-03-03T11:33:54.760Z,86.13
2023-03-03T11:36:23.118Z,100.30
2023-03-03T11:38:54.796Z,79.50
2023-03-03T11:41:31.650Z,92.43
2023-03-03T11:44:03.262Z,90.67
2023-03-03T11:46:35.385Z,92.57
2023-03-03T11:49:05.020Z,92.60
2023-03-03T11:51:41.070Z,85.20
2023-03-03T11:54:12.767Z,84.90
2023-03-03T11:56:40.810Z,85.17
2023-03-03T11:59:40.415Z,87.53
2023-03-03T12:02:21.698Z,85.53
2023-03-03T12:04:50.145Z,72.17
2023-03-03T12:07:23.705Z,83.10
2023-03-03T12:09:57.316Z,85.13
2023-03-03T12:12:25.735Z,85.57
2023-03-03T12:15:04.442Z,95.60
2023-03-03T12:17:51.353Z,83.77
2023-03-03T12:20:23.406Z,83.80
2023-03-03T12:23:07.048Z,77.63
2023-03-03T12:25:36.507Z,67.40
2023-03-03T12:28:05.203Z,73.77
2023-03-03T12:30:43.856Z,74.73
2023-03-03T12:33:20.877Z,83.83
2023-03-03T12:35:53.776Z,70.27
2023-03-03T12:38:28.076Z,72.13
2023-03-03T12:40:59.020Z,71.73
2023-03-03T12:43:39.395Z,71.47
2023-03-03T12:46:09.682Z,79.47
2023-03-03T12:48:40.494Z,67.03
2023-03-03T12:51:13.986Z,60.07
2023-03-03T12:53:48.816Z,75.30
2023-03-03T12:56:17.598Z,74.03
2023-03-03T12:58:51.017Z,71.83
2023-03-03T13:01:30.604Z,66.77
2023-03-03T13:04:04.880Z,67.93
2023-03-03T13:06:32.565Z,57.87
2023-03-03T13:09:06.121Z,61.53
2023-03-03T13:11:49.788Z,61.87
2023-03-03T13:14:25.470Z,67.13
2023-03-03T13:17:01.992Z,66.10
2023-03-03T13:19:32.346Z,62.80
2023-03-03T13:22:01.512Z,72.00
2023-03-03T13:24:32.082Z,67.20
2023-03-03T13:27:01.096Z,69.47
2023-03-03T13:29:30.076Z,70.57
2023-03-03T13:31:59.658Z,64.60
2023-03-03T13:34:37.065Z,50.13
2023-03-03T13:37:07.575Z,50.53
2023-03-03T13:39:39.552Z,59.13
2023-03-03T13:42:14.202Z,53.07
2023-03-03T13:44:42.755Z,53.17
2023-03-03T13:47:14.448Z,51.60
2023-03-03T13:50:00.713Z,46.00
2023-03-03T13:52:28.098Z,48.87
2023-03-03T13:55:06.517Z,51.60
2023-03-03T13:57:45.606Z,51.83
2023-03-03T14:00:20.159Z,54.93
2023-03-03T14:03:17.319Z,49.27
2023-03-03T14:05:45.549Z,60.97
2023-03-03T14:08:19.622Z,46.60
2023-03-03T14:10:51.371Z,48.50
2023-03-03T14:13:20.241Z,47.63
2023-03-03T14:15:51.552Z,50.53
2023-03-03T14:18:24.198Z,51.77
2023-03-03T14:20:52.844Z,50.30
2023-03-03T14:23:22.584Z,48.77
2023-03-03T14:25:59.467Z,45.83
2023-03-03T14:28:27.714Z,50.20
2023-03-03T14:30:55.730Z,53.63
2023-03-03T14:33:26.614Z,52.30
2023-03-03T14:36:15.486Z,49.97
2023-03-03T14:38:46.075Z,42.87
2023-03-03T14:41:20.680Z,50.90
2023-03-03T14:43:57.569Z,53.73
2023-03-03T14:46:33.186Z,53.67
2023-03-03T14:49:01.069Z,57.77
2023-03-03T14:51:31.209Z,47.23
2023-03-03T14:53:57.564Z,49.10
2023-03-03T14:56:24.880Z,54.90
2023-03-03T14:58:52.085Z,46.17
2023-03-03T15:01:23.709Z,56.73
2023-03-03T15:03:59.090Z,50.53
2023-03-03T15:06:31.134Z,48.13
2023-03-03T15:08:57.352Z,55.03
2023-03-03T15:11:27.539Z,47.30
2023-03-03T15:13:55.466Z,47.87
2023-03-03T15:16:23.154Z,48.67
2023-03-03T15:19:21.614Z,49.47
2023-03-03T15:21:58.836Z,51.57
2023-03-03T15:24:31.169Z,50.63
2023-03-03T15:27:00.948Z,47.10
2023-03-03T15:29:30.624Z,54.73
2023-03-03T15:32:02.008Z,51.10
2023-03-03T15:34:35.990Z,53.47
2023-03-03T15:37:11.327Z,49.97
2023-03-03T15:39:43.669Z,56.57
2023-03-03T15:42:13.670Z,50.77
2023-03-03T15:44:48.154Z,47.93
2023-03-03T15:47:28.967Z,54.47
2023-03-03T15:50:05.760Z,43.57
2023-03-03T15:52:40.501Z,50.77
2023-03-03T15:55:17.321Z,47.53
2023-03-03T15:57:53.184Z,42.70
2023-03-03T16:00:29.533Z,42.93
2023-03-03T16:02:59.012Z,45.43
2023-03-03T16:05:35.233Z,46.63
2023-03-03T16:08:12.860Z,49.30
2023-03-03T16:10:49.039Z,42.77
2023-03-03T16:13:22.546Z,42.60
2023-03-03T16:15:57.925Z,41.50
2023-03-03T16:18:33.333Z,48.40
2023-03-03T16:21:13.323Z,42.33
2023-03-03T16:23:46.562Z,45.33
2023-03-03T16:26:21.144Z,48.57
2023-03-03T16:28:56.902Z,41.03
2023-03-03T16:31:27.077Z,38.87
2023-03-03T16:33:58.509Z,45.57
2023-03-03T16:36:30.298Z,44.77
2023-03-03T16:39:02.690Z,41.33
2023-03-03T16:41:39.601Z,45.53
2023-03-03T16:44:15.865Z,44.77
2023-03-03T16:46:43.535Z,45.60
2023-03-03T16:49:14.866Z,45.00
2023-03-03T16:51:45.574Z,46.27
2023-03-03T16:54:18.099Z,46.53
2023-03-03T16:56:48.336Z,43.07
2023-03-03T16:59:38.786Z,44.50
2023-03-03T17:02:18.899Z,50.23
2023-03-03T17:04:47.164Z,39.60
2023-03-03T17:07:23.673Z,44.63
2023-03-03T17:10:05.655Z,47.77
2023-03-03T17:12:47.361Z,38.90
2023-03-03T17:15:24.742Z,42.73
2023-03-03T17:17:56.860Z,50.33
2023-03-03T17:20:30.863Z,42.10
2023-03-03T17:23:08.889Z,50.37
2023-03-03T17:25:39.862Z,43.83
2023-03-03T17:28:19.449Z,50.07
2023-03-03T17:30:48.964Z,46.77
2023-03-03T17:33:27.948Z,49.70
2023-03-03T17:36:04.070Z,48.07
2023-03-03T17:38:38.152Z,46.93
2023-03-03T17:41:08.711Z,47.67
2023-03-03T17:43:43.339Z,45.13
2023-03-03T17:46:14.627Z,48.23
2023-03-03T17:49:05.011Z,48.33
2023-03-03T17:51:55.468Z,45.17
2023-03-03T17:54:40.022Z,45.83
2023-03-03T17:57:20.515Z,45.33
2023-03-03T17:59:58.554Z,46.23
2023-03-03T18:02:43.220Z,45.00
2023-03-03T18:05:43.732Z,44.83
2023-03-03T18:08:26.319Z,39.77
2023-03-03T18:11:15.197Z,52.27
2023-03-03T18:14:15.917Z,44.30
2023-03-03T18:17:01.480Z,44.37
2023-03-03T18:20:01.655Z,44.10
2023-03-03T18:22:31.332Z,47.80
2023-03-03T18:25:00.760Z,45.37
2023-03-03T18:27:35.212Z,43.97
2023-03-03T18:30:20.452Z,47.17
2023-03-03T18:33:00.426Z,51.03
2023-03-03T18:35:30.658Z,48.60
2023-03-03T18:37:57.232Z,51.97
2023-03-03T18:40:30.596Z,46.37
2023-03-03T18:42:56.909Z,48.03
2023-03-03T18:45:49.931Z,50.13
2023-03-03T18:48:17.622Z,50.13
2023-03-03T18:50:44.759Z,49.13
2023-03-03T18:53:18.100Z,52.67
2023-03-03T18:55:45.792Z,49.40
2023-03-03T18:58:33.872Z,49.37
2023-03-03T19:01:11.406Z,51.47
2023-03-03T19:03:56.158Z,48.47
2023-03-03T19:06:30.040Z,47.70
2023-03-03T19:08:57.502Z,60.80
2023-03-03T19:11:35.294Z,54.63
2023-03-03T19:14:31.149Z,55.47
2023-03-03T19:16:58.600Z,61.87
2023-03-03T19:19:25.625Z,51.37
2023-03-03T19:22:19.193Z,54.27
2023-03-03T19:25:12.443Z,56.13
2023-03-03T19:27:43.199Z,55.87
2023-03-03T19:30:41.317Z,60.77
2023-03-03T19:33:22.632Z,64.30
2023-03-03T19:36:01.821Z,61.03
2023-03-03T19:38:33.865Z,59.07
2023-03-03T19:41:08.144Z,64.33
2023-03-03T19:43:43.730Z,49.93
2023-03-03T19:46:22.709Z,65.37
2023-03-03T19:48:57.023Z,62.63
2023-03-03T19:51:27.836Z,57.90
2023-03-03T19:54:11.932Z,55.70
2023-03-03T19:56:40.629Z,59.00
2023-03-03T19:59:16.374Z,56.10
2023-03-03T20:01:49.069Z,54.87
2023-03-03T20:04:41.437Z,62.63
2023-03-03T20:07:17.311Z,60.07
2023-03-03T20:09:49.320Z,53.93
2023-03-03T20:12:37.120Z,58.90
2023-03-03T20:15:08.938Z,56.87
2023-03-03T20:18:02.771Z,56.83
2023-03-03T20:20:46.430Z,59.80
2023-03-03T20:23:20.889Z,71.03
2023-03-03T20:25:48.577Z,54.73
2023-03-03T20:28:40.610Z,56.17
2023-03-03T20:31:10.685Z,61.60
2023-03-03T20:33:47.437Z,68.83
2023-03-03T20:36:20.913Z,66.90
2023-03-03T20:38:53.864Z,67.77
2023-03-03T20:41:29.802Z,58.90
2023-03-03T20:44:07.145Z,67.23
2023-03-03T20:46:41.593Z,62.43
2023-03-03T20:49:24.709Z,58.27
2023-03-03T20:51:55.634Z,63.63
2023-03-03T20:54:29.007Z,62.33
2023-03-03T20:57:02.291Z,62.27
2023-03-03T20:59:34.111Z,66.80
2023-03-03T21:02:07.425Z,67.97
2023-03-03T21:04:35.398Z,68.53
2023-03-03T21:07:03.708Z,59.43
2023-03-03T21:09:31.055Z,59.03
2023-03-03T21:11:58.885Z,68.10
2023-03-03T21:14:27.593Z,68.83
2023-03-03T21:16:56.117Z,62.27
2023-03-03T21:19:25.040Z,67.77
2023-03-03T21:21:52.164Z,63.93
2023-03-03T21:24:19.343Z,69.00
2023-03-03T21:26:56.321Z,63.67
2023-03-03T21:29:24.999Z,71.77
2023-03-03T21:31:52.739Z,82.13
2023-03-03T21:34:24.899Z,79.23
2023-03-03T21:36:52.205Z,81.50
2023-03-03T21:39:27.483Z,87.90
2023-03-03T21:41:55.478Z,86.50
2023-03-03T21:44:29.539Z,91.00
2023-03-03T21:46:58.213Z,98.17
2023-03-03T21:49:25.202Z,86.23
2023-03-03T21:51:52.082Z,94.27
2023-03-03T21:54:18.874Z,88.77
2023-03-03T21:56:47.188Z,98.10
2023-03-03T21:59:13.605Z,91.07
2023-03-03T22:01:39.924Z,88.60
2023-03-03T22:04:06.265Z,105.47
2023-03-03T22:06:32.735Z,97.43
2023-03-03T22:08:59.050Z,88.33
2023-03-03T22:11:29.219Z,89.77
2023-03-03T22:13:55.460Z,96.33
2023-03-03T22:16:21.958Z,95.00
2023-03-03T22:18:48.192Z,88.87
2023-03-03T22:21:17.129Z,84.47
2023-03-03T22:23:43.541Z,91.57
2023-03-03T22:26:09.856Z,88.23
2023-03-03T22:28:36.741Z,86.60
2023-03-03T22:31:03.092Z,76.33
2023-03-03T22:33:29.470Z,72.70
2023-03-03T22:35:55.906Z,66.10
2023-03-03T22:38:23.049Z,83.27
2023-03-03T22:40:53.577Z,79.43
2023-03-03T22:43:19.825Z,72.03
2023-03-03T22:45:46.631Z,73.33
2023-03-03T22:48:12.856Z,78.27
2023-03-03T22:50:40.927Z,71.53
2023-03-03T22:53:07.506Z,79.37
2023-03-03T22:55:36.144Z,71.20
2023-03-03T22:58:02.596Z,70.17
2023-03-03T23:00:28.825Z,66.33
2023-03-03T23:02:55.792Z,75.80
2023-03-03T23:05:22.024Z,68.13
2023-03-03T23:07:48.461Z,78.23
2023-03-03T23:10:14.769Z,71.10
2023-03-03T23:12:41.036Z,74.47
2023-03-03T23:15:12.513Z,71.60
2023-03-03T23:17:39.073Z,71.60
2023-03-03T23:20:07.687Z,69.80
2023-03-03T23:22:33.925Z,70.37
2023-03-03T23:25:00.145Z,66.83
2023-03-03T23:27:26.427Z,73.83
2023-03-03T23:29:54.004Z,64.80
2023-03-03T23:32:20.787Z,68.03
2023-03-03T23:34:47.243Z,76.47
2023-03-03T23:37:14.383Z,77.67
2023-03-03T23:39:40.831Z,72.07
2023-03-03T23:42:07.126Z,81.90
2023-03-03T23:44:33.444Z,75.33
2023-03-03T23:46:59.860Z,77.70
2023-03-03T23:49:26.021Z,71.30
2023-03-03T23:51:52.377Z,87.40
2023-03-03T23:54:19.189Z,73.40
2023-03-03T23:56:45.482Z,75.80
2023-03-03T23:59:11.673Z,73.30
